Time;durP1;ratioP1;P1;durP2;ratioP2;P2;SDS_P1;SDS_P2;PMS_P1;PMS_P2;Temp;Humidity;BMP_temperature;BMP_pressure;BME280_temperature;BME280_humidity;BME280_pressure;Samples;Min_cycle;Max_cycle;Signal;HPM_P1;HPM_P2
2023/02/18 00:00:19;;;;;;;25.23;17.47;;;13.40;99.90;;;;;;5116790;28;20168;-83
2023/02/18 00:02:45;;;;;;;22.23;17.40;;;13.40;99.90;;;;;;5116959;28;20568;-82
2023/02/18 00:05:12;;;;;;;28.90;17.80;;;13.40;99.90;;;;;;5116648;28;20841;-83
2023/02/18 00:07:39;;;;;;;24.03;17.27;;;13.40;99.90;;;;;;5098069;28;20471;-84
2023/02/18 00:10:08;;;;;;;24.53;18.60;;;13.40;99.90;;;;;;5098610;28;20396;-83
2023/02/18 00:12:34;;;;;;;26.60;17.63;;;13.40;99.90;;;;;;5098105;28;20491;-84
2023/02/18 00:14:59;;;;;;;25.90;19.13;;;13.40;99.90;;;;;;5098128;28;20467;-83
2023/02/18 00:17:25;;;;;;;25.57;19.20;;;13.40;99.90;;;;;;5098162;28;20734;-83
2023/02/18 00:19:51;;;;;;;27.57;19.83;;;13.50;99.90;;;;;;5098129;28;20201;-83
2023/02/18 00:22:17;;;;;;;24.63;17.13;;;13.50;99.90;;;;;;5097851;28;21019;-83
2023/02/18 00:24:42;;;;;;;27.07;20.23;;;13.60;99.90;;;;;;5097731;28;20229;-82
2023/02/18 00:27:12;;;;;;;29.90;19.40;;;13.60;99.90;;;;;;5116072;28;20210;-83
2023/02/18 00:29:38;;;;;;;24.93;17.50;;;13.60;99.90;;;;;;5116509;28;20759;-83
2023/02/18 00:32:04;;;;;;;32.30;20.07;;;13.60;99.90;;;;;;5097596;28;20488;-83
2023/02/18 00:34:29;;;;;;;28.27;18.60;;;13.60;99.90;;;;;;5097896;28;20172;-82
2023/02/18 00:36:55;;;;;;;28.70;19.90;;;13.50;99.90;;;;;;5097744;28;20266;-84
2023/02/18 00:39:21;;;;;;;32.00;21.43;;;13.60;99.90;;;;;;5097766;28;20176;-83
2023/02/18 00:41:47;;;;;;;30.20;21.13;;;13.50;99.90;;;;;;5097530;28;20184;-83
2023/02/18 00:44:13;;;;;;;30.67;20.33;;;13.60;99.90;;;;;;5097511;28;20431;-83
2023/02/18 00:46:39;;;;;;;30.30;21.30;;;13.60;99.90;;;;;;5115892;28;20180;-82
2023/02/18 00:49:06;;;;;;;28.70;19.50;;;13.50;99.90;;;;;;5115818;28;20172;-83
2023/02/18 00:51:32;;;;;;;29.83;20.93;;;13.50;99.90;;;;;;5115689;28;20560;-84
2023/02/18 00:53:58;;;;;;;31.03;19.73;;;13.40;99.90;;;;;;5115666;28;20412;-83
2023/02/18 00:56:24;;;;;;;31.67;20.40;;;13.40;99.90;;;;;;5097377;28;20489;-83
2023/02/18 00:58:51;;;;;;;29.53;20.97;;;13.30;99.90;;;;;;5097191;28;20429;-84
2023/02/18 01:01:17;;;;;;;31.07;21.80;;;13.30;99.90;;;;;;5115533;28;20188;-83
2023/02/18 01:03:43;;;;;;;32.83;21.47;;;13.20;99.90;;;;;;5097128;28;20450;-83
2023/02/18 01:06:10;;;;;;;34.60;22.03;;;13.20;99.90;;;;;;5115268;28;20509;-83
2023/02/18 01:08:37;;;;;;;33.13;21.87;;;13.20;99.90;;;;;;5097169;28;20918;-84
2023/02/18 01:11:04;;;;;;;37.97;22.90;;;13.10;99.90;;;;;;5096956;28;20455;-83
2023/02/18 01:13:30;;;;;;;38.63;21.97;;;13.00;99.90;;;;;;5096746;28;20468;-83
2023/02/18 01:15:56;;;;;;;36.37;22.93;;;13.00;99.90;;;;;;5096923;28;20404;-82
2023/02/18 01:18:24;;;;;;;33.50;21.63;;;13.00;99.90;;;;;;5096931;28;20789;-83
2023/02/18 01:20:50;;;;;;;41.07;24.00;;;12.90;99.90;;;;;;5096951;28;20431;-84
2023/02/18 01:23:17;;;;;;;34.47;23.20;;;12.80;99.90;;;;;;5096982;28;20448;-84
2023/02/18 01:25:43;;;;;;;36.67;23.63;;;12.80;99.90;;;;;;5115021;28;20172;-82
2023/02/18 01:28:11;;;;;;;33.60;22.33;;;12.80;99.90;;;;;;5096858;28;20448;-82
2023/02/18 01:30:37;;;;;;;35.17;22.73;;;12.60;99.90;;;;;;5114932;28;20404;-83
2023/02/18 01:33:02;;;;;;;40.37;24.83;;;12.60;99.90;;;;;;5115298;28;20474;-83
2023/02/18 01:35:28;;;;;;;34.13;24.27;;;12.50;99.90;;;;;;5114868;28;20487;-83
2023/02/18 01:37:54;;;;;;;40.73;26.03;;;12.30;99.90;;;;;;5095883;28;20215;-83
2023/02/18 01:40:23;;;;;;;36.97;24.70;;;12.20;99.90;;;;;;5114788;28;20544;-83
2023/02/18 01:42:49;;;;;;;36.03;24.65;;;12.20;99.90;;;;;;5096490;28;20203;-82
2023/02/18 01:45:41;;;;;;;39.23;24.97;;;12.10;99.90;;;;;;5096417;28;20176;-83
2023/02/18 01:48:24;;;;;;;45.23;25.10;;;12.10;99.90;;;;;;5115170;28;20970;-82
2023/02/18 01:50:55;;;;;;;35.80;25.73;;;12.20;99.90;;;;;;5096366;28;20772;-83
2023/02/18 01:53:27;;;;;;;42.78;24.63;;;12.10;99.90;;;;;;5096404;28;20208;-82
2023/02/18 01:55:54;;;;;;;40.05;25.10;;;12.10;99.90;;;;;;5096542;28;20647;-82
2023/02/18 01:58:20;;;;;;;43.85;27.13;;;11.90;99.90;;;;;;5096336;28;20547;-84
2023/02/18 02:00:46;;;;;;;40.60;25.85;;;11.90;99.90;;;;;;5096178;28;20180;-83
2023/02/18 02:03:12;;;;;;;40.60;24.00;;;11.80;99.90;;;;;;5096280;28;20203;-83
2023/02/18 02:05:37;;;;;;;37.17;24.23;;;11.80;99.90;;;;;;5114320;28;20172;-82
2023/02/18 02:08:04;;;;;;;42.77;25.10;;;11.90;99.90;;;;;;5114719;28;20204;-83
2023/02/18 02:11:10;;;;;;;34.58;23.60;;;11.90;99.90;;;;;;5114313;28;20167;-82
2023/02/18 02:13:56;;;;;;;45.13;26.33;;;11.90;99.90;;;;;;5095832;28;20231;-83
2023/02/18 02:16:41;;;;;;;37.75;25.55;;;11.90;99.90;;;;;;5095967;28;20187;-83
2023/02/18 02:19:10;;;;;;;43.90;26.85;;;11.80;99.90;;;;;;5096019;28;20178;-83
2023/02/18 02:22:06;;;;;;;41.15;26.88;;;11.80;99.90;;;;;;5095826;28;20587;-84
2023/02/18 02:25:02;;;;;;;43.25;26.85;;;11.60;99.90;;;;;;5114164;28;20648;-83
2023/02/18 02:27:48;;;;;;;51.72;28.52;;;11.60;99.90;;;;;;5114383;28;20596;-83
2023/02/18 02:30:20;;;;;;;46.92;27.15;;;11.50;99.90;;;;;;5114191;28;20159;-82
2023/02/18 02:33:14;;;;;;;46.13;26.35;;;11.50;99.90;;;;;;5114280;28;20223;-83
2023/02/18 02:35:50;;;;;;;42.13;26.33;;;11.40;99.90;;;;;;5114052;28;20308;-83
2023/02/18 02:38:25;;;;;;;41.08;26.75;;;11.40;99.90;;;;;;5095970;28;20203;-84
2023/02/18 02:41:26;;;;;;;45.22;27.98;;;11.30;99.90;;;;;;5095837;28;20171;-83
2023/02/18 02:44:00;;;;;;;38.70;26.02;;;11.30;99.90;;;;;;5114165;28;20730;-83
2023/02/18 02:46:34;;;;;;;38.67;27.30;;;11.30;99.90;;;;;;5095737;28;20269;-84
2023/02/18 02:49:18;;;;;;;43.08;27.02;;;11.30;99.90;;;;;;5097507;28;20196;-83
2023/02/18 02:51:55;;;;;;;44.75;28.33;;;11.30;99.90;;;;;;5118010;28;20621;-82
2023/02/18 02:54:24;;;;;;;45.10;27.17;;;11.40;99.90;;;;;;5118097;28;20254;-83
2023/02/18 02:57:01;;;;;;;44.78;29.45;;;11.40;99.90;;;;;;5118113;28;20183;-83
2023/02/18 02:59:27;;;;;;;46.67;28.42;;;11.30;99.90;;;;;;5117896;28;20166;-83
2023/02/18 03:02:23;;;;;;;52.10;28.80;;;11.30;99.90;;;;;;5099625;28;20183;-83
2023/02/18 03:04:58;;;;;;;46.80;29.35;;;11.30;99.90;;;;;;5099559;28;20829;-83
2023/02/18 03:07:33;;;;;;;44.40;28.15;;;11.30;99.90;;;;;;5118050;28;20191;-83
2023/02/18 03:10:20;;;;;;;40.80;28.48;;;11.30;99.90;;;;;;5099515;28;20648;-82
2023/02/18 03:12:52;;;;;;;45.55;29.05;;;11.30;99.90;;;;;;5117323;28;20238;-83
2023/02/18 03:15:35;;;;;;;46.40;27.75;;;11.40;99.90;;;;;;5117735;28;20577;-83
2023/02/18 03:18:22;;;;;;;47.28;27.80;;;11.30;99.90;;;;;;5099446;28;20222;-82
2023/02/18 03:20:57;;;;;;;49.67;29.80;;;11.40;99.90;;;;;;5117548;28;20164;-82
2023/02/18 03:23:31;;;;;;;53.65;30.60;;;11.40;99.90;;;;;;5117462;28;20225;-83
2023/02/18 03:25:58;;;;;;;50.38;31.23;;;11.50;99.90;;;;;;5117346;28;20183;-83
2023/02/18 03:28:30;;;;;;;47.83;29.20;;;11.50;99.90;;;;;;5099035;28;20245;-82
2023/02/18 03:31:01;;;;;;;48.10;28.10;;;11.60;99.90;;;;;;5117307;28;20156;-82
2023/02/18 03:33:51;;;;;;;45.53;28.52;;;11.60;99.90;;;;;;5098861;28;20202;-84
2023/02/18 03:36:19;;;;;;;43.75;28.33;;;11.70;99.90;;;;;;5098859;28;20660;-82
2023/02/18 03:39:01;;;;;;;47.88;28.02;;;11.70;99.90;;;;;;5117123;28;20242;-83
2023/02/18 03:41:43;;;;;;;43.95;27.58;;;11.60;99.90;;;;;;5117243;28;20200;-83
2023/02/18 03:44:10;;;;;;;49.50;29.33;;;11.70;99.90;;;;;;5117130;28;20632;-83
2023/02/18 03:46:38;;;;;;;45.45;28.58;;;11.60;99.90;;;;;;5116939;28;20180;-83
2023/02/18 03:49:04;;;;;;;51.20;28.80;;;11.50;99.90;;;;;;5098562;28;20294;-82
2023/02/18 03:51:30;;;;;;;53.03;30.08;;;11.50;99.90;;;;;;5098597;28;20684;-84
2023/02/18 03:53:56;;;;;;;53.58;29.83;;;11.50;99.90;;;;;;5098597;28;20741;-83
2023/02/18 03:56:22;;;;;;;53.87;30.73;;;11.50;99.90;;;;;;5098501;28;20176;-82
2023/02/18 03:58:48;;;;;;;47.33;31.70;;;11.50;99.90;;;;;;5098510;28;20489;-83
2023/02/18 04:01:14;;;;;;;48.27;29.23;;;11.40;99.90;;;;;;5097493;28;20183;-83
2023/02/18 04:03:40;;;;;;;54.42;31.05;;;11.40;99.90;;;;;;5116619;28;20476;-83
2023/02/18 04:06:06;;;;;;;50.27;31.53;;;11.40;99.90;;;;;;5116530;28;20172;-82
2023/02/18 04:08:32;;;;;;;50.23;31.10;;;11.40;99.90;;;;;;5098191;28;20196;-83
2023/02/18 04:10:58;;;;;;;54.47;32.73;;;11.50;99.90;;;;;;5098118;28;20404;-83
2023/02/18 04:13:23;;;;;;;51.13;30.80;;;11.50;99.90;;;;;;5094543;28;20479;-83
2023/02/18 04:15:50;;;;;;;55.63;28.07;;;11.50;99.90;;;;;;5096012;28;20536;-82
2023/02/18 04:18:17;;;;;;;55.20;31.17;;;11.50;99.90;;;;;;5094880;28;20204;-83
2023/02/18 04:20:42;;;;;;;49.28;31.27;;;11.50;99.90;;;;;;5094600;28;20188;-82
2023/02/18 04:23:08;;;;;;;53.43;31.17;;;11.50;99.90;;;;;;5096372;28;20550;-83
2023/02/18 04:25:34;;;;;;;52.37;31.23;;;11.60;99.90;;;;;;5095925;28;20172;-82
2023/02/18 04:28:00;;;;;;;47.43;29.80;;;11.60;99.90;;;;;;5094690;28;20246;-83
2023/02/18 04:30:25;;;;;;;52.60;31.40;;;11.70;99.90;;;;;;5095839;28;20406;-83
2023/02/18 04:32:51;;;;;;;51.17;31.80;;;11.70;99.90;;;;;;5094620;28;20227;-83
2023/02/18 04:35:17;;;;;;;49.70;30.77;;;11.70;99.90;;;;;;5094471;28;20679;-83
2023/02/18 04:37:43;;;;;;;50.13;30.45;;;11.70;99.90;;;;;;5094336;28;20287;-83
2023/02/18 04:40:09;;;;;;;54.37;31.97;;;11.60;99.90;;;;;;5095619;28;20275;-82
2023/02/18 04:42:35;;;;;;;52.65;31.63;;;11.60;99.90;;;;;;5095708;28;20661;-83
2023/02/18 04:45:01;;;;;;;51.90;31.53;;;11.50;99.90;;;;;;5094250;28;20173;-83
2023/02/18 04:47:26;;;;;;;52.53;31.43;;;11.50;99.90;;;;;;5094096;28;20253;-83
2023/02/18 04:49:52;;;;;;;48.20;30.27;;;11.50;99.90;;;;;;5095452;28;20538;-83
2023/02/18 04:52:19;;;;;;;51.97;31.00;;;11.50;99.90;;;;;;5093761;28;20234;-83
2023/02/18 04:54:44;;;;;;;56.00;31.80;;;11.50;99.90;;;;;;5095329;28;20445;-83
2023/02/18 04:57:10;;;;;;;55.17;34.10;;;11.60;99.90;;;;;;5093999;28;20240;-84
2023/02/18 04:59:36;;;;;;;54.13;33.33;;;11.60;99.90;;;;;;5093898;28;20173;-82
2023/02/18 05:02:02;;;;;;;51.07;29.90;;;11.50;99.90;;;;;;5093797;28;20457;-82
2023/02/18 05:04:27;;;;;;;47.77;31.17;;;11.60;99.90;;;;;;5095076;28;20179;-82
2023/02/18 05:06:53;;;;;;;55.53;34.00;;;11.70;99.90;;;;;;5093760;28;20191;-83
2023/02/18 05:09:19;;;;;;;47.70;30.50;;;11.70;99.90;;;;;;5095031;28;20207;-83
2023/02/18 05:11:46;;;;;;;59.07;33.03;;;11.80;99.90;;;;;;5094817;28;20630;-83
2023/02/18 05:14:12;;;;;;;52.00;32.42;;;11.80;99.90;;;;;;5104967;28;20252;-83
2023/02/18 05:16:38;;;;;;;54.92;33.40;;;11.80;99.90;;;;;;5096967;28;20191;-83
2023/02/18 05:19:05;;;;;;;53.45;33.85;;;11.80;99.90;;;;;;5115198;28;20167;-83
2023/02/18 05:21:31;;;;;;;51.72;32.97;;;11.90;99.90;;;;;;5115234;28;20187;-83
2023/02/18 05:23:57;;;;;;;56.42;34.40;;;11.90;99.90;;;;;;5115125;28;20619;-83
2023/02/18 05:26:22;;;;;;;50.50;33.33;;;11.80;99.90;;;;;;5096778;28;20223;-83
2023/02/18 05:28:49;;;;;;;56.63;32.93;;;11.90;99.90;;;;;;5096590;28;20187;-82
2023/02/18 05:31:15;;;;;;;55.55;32.90;;;11.90;99.90;;;;;;5096581;28;20208;-83
2023/02/18 05:33:40;;;;;;;60.10;35.57;;;11.90;99.90;;;;;;5096566;28;20565;-82
2023/02/18 05:36:07;;;;;;;55.13;33.70;;;11.90;99.90;;;;;;5114846;28;20176;-83
2023/02/18 05:38:32;;;;;;;47.72;31.45;;;11.90;99.90;;;;;;5114789;28;20555;-83
2023/02/18 05:40:58;;;;;;;53.87;34.20;;;11.90;99.90;;;;;;5114681;28;20164;-84
2023/02/18 05:43:24;;;;;;;56.23;33.83;;;11.90;99.90;;;;;;5096459;28;20196;-83
2023/02/18 05:45:50;;;;;;;57.03;31.70;;;11.90;99.90;;;;;;5096658;28;20179;-81
2023/02/18 05:48:15;;;;;;;51.67;32.80;;;11.80;99.90;;;;;;5115066;28;20245;-84
2023/02/18 05:50:41;;;;;;;56.90;32.73;;;11.80;99.90;;;;;;5114627;28;20641;-83
2023/02/18 05:53:07;;;;;;;53.03;34.17;;;11.80;99.90;;;;;;5114867;28;20215;-83
2023/02/18 05:55:37;;;;;;;64.70;37.80;;;11.80;99.90;;;;;;5096254;28;20194;-81
2023/02/18 05:58:04;;;;;;;62.90;36.63;;;11.80;99.90;;;;;;5114962;28;20278;-83
2023/02/18 06:00:30;;;;;;;53.92;33.92;;;11.80;99.90;;;;;;5114494;28;20629;-82
2023/02/18 06:02:57;;;;;;;54.67;35.78;;;11.80;99.90;;;;;;5114327;28;20276;-83
2023/02/18 06:05:22;;;;;;;58.67;36.75;;;11.80;99.90;;;;;;5096177;28;20187;-82
2023/02/18 06:07:48;;;;;;;53.57;34.70;;;11.70;99.90;;;;;;5096262;28;20203;-83
2023/02/18 06:10:14;;;;;;;57.33;34.50;;;11.70;99.90;;;;;;5114328;28;20579;-83
2023/02/18 06:12:39;;;;;;;60.93;33.13;;;11.70;99.90;;;;;;5096044;28;20219;-83
2023/02/18 06:15:05;;;;;;;59.23;35.43;;;11.70;99.90;;;;;;5096090;28;20231;-83
2023/02/18 06:17:31;;;;;;;60.20;36.78;;;11.70;99.90;;;;;;5095783;28;20676;-83
2023/02/18 06:19:57;;;;;;;61.60;36.70;;;11.60;99.90;;;;;;5095945;28;20174;-83
2023/02/18 06:22:23;;;;;;;73.90;41.90;;;11.70;99.90;;;;;;5096021;28;20454;-83
2023/02/18 06:24:49;;;;;;;67.60;39.30;;;11.70;99.90;;;;;;5113974;28;20255;-82
2023/02/18 06:27:14;;;;;;;66.10;37.70;;;11.70;99.90;;;;;;5114303;28;20219;-83
2023/02/18 06:29:40;;;;;;;72.53;41.63;;;11.70;99.90;;;;;;5095879;28;20421;-83
2023/02/18 06:32:06;;;;;;;61.23;36.93;;;11.50;99.90;;;;;;5095800;28;20553;-83
2023/02/18 06:34:31;;;;;;;62.00;36.40;;;11.50;99.90;;;;;;5114054;28;20663;-83
2023/02/18 06:36:57;;;;;;;61.97;38.47;;;11.50;99.90;;;;;;5114178;28;20592;-84
2023/02/18 06:39:23;;;;;;;79.27;52.47;;;11.50;99.90;;;;;;5114006;28;20163;-83
2023/02/18 06:41:49;;;;;;;60.50;36.10;;;11.40;99.90;;;;;;5114018;28;20416;-83
2023/02/18 06:44:16;;;;;;;62.53;38.30;;;11.40;99.90;;;;;;5095765;28;20175;-83
2023/02/18 06:46:41;;;;;;;59.95;38.00;;;11.30;99.90;;;;;;5095607;28;20458;-83
2023/02/18 06:49:07;;;;;;;59.70;36.63;;;11.40;99.90;;;;;;5114154;28;20247;-84
2023/02/18 06:51:33;;;;;;;58.53;37.03;;;11.30;99.90;;;;;;5113936;28;20214;-83
2023/02/18 06:53:59;;;;;;;60.60;37.50;;;11.40;99.90;;;;;;5113944;28;20183;-83
2023/02/18 06:56:24;;;;;;;68.07;39.33;;;11.40;99.90;;;;;;5113895;28;20183;-83
2023/02/18 06:58:50;;;;;;;64.70;37.13;;;11.50;99.90;;;;;;5095560;28;20202;-83
2023/02/18 07:01:16;;;;;;;64.17;37.03;;;11.40;99.90;;;;;;5095731;28;20446;-83
2023/02/18 07:03:41;;;;;;;64.83;37.37;;;11.30;99.90;;;;;;5095731;28;20202;-83
2023/02/18 07:06:07;;;;;;;57.30;34.60;;;11.30;99.90;;;;;;5095612;28;20267;-83
2023/02/18 07:08:36;;;;;;;59.43;34.83;;;11.40;99.90;;;;;;5095493;28;20198;-83
2023/02/18 07:11:02;;;;;;;59.35;36.15;;;11.40;99.90;;;;;;5112406;28;20191;-82
2023/02/18 07:13:28;;;;;;;57.95;35.67;;;11.50;99.90;;;;;;5094974;28;20270;-83
2023/02/18 07:15:53;;;;;;;62.13;38.63;;;11.50;99.90;;;;;;5095371;28;20180;-83
2023/02/18 07:18:19;;;;;;;59.67;34.13;;;11.50;99.90;;;;;;5095461;28;20199;-83
2023/02/18 07:20:45;;;;;;;63.93;35.77;;;11.50;99.90;;;;;;5095214;28;20266;-83
2023/02/18 07:23:11;;;;;;;58.93;36.20;;;11.60;99.90;;;;;;5095496;28;20242;-83
2023/02/18 07:25:37;;;;;;;61.30;33.83;;;11.70;99.90;;;;;;5113592;28;20280;-83
2023/02/18 07:28:02;;;;;;;57.20;33.40;;;11.70;99.90;;;;;;5095459;28;20211;-83
2023/02/18 07:30:28;;;;;;;59.70;34.70;;;11.80;99.90;;;;;;5095296;28;20207;-82
2023/02/18 07:32:54;;;;;;;57.23;34.57;;;11.80;99.90;;;;;;5095214;28;20544;-83
2023/02/18 07:35:20;;;;;;;63.10;34.70;;;11.80;99.90;;;;;;5114107;28;20175;-83
2023/02/18 07:37:49;;;;;;;57.53;35.75;;;11.80;99.90;;;;;;5099002;28;20588;-83
2023/02/18 07:40:20;;;;;;;63.65;37.28;;;11.90;99.90;;;;;;5098929;28;20207;-83
2023/02/18 07:42:46;;;;;;;61.22;36.78;;;11.90;99.90;;;;;;5098926;28;20286;-83
2023/02/18 07:45:13;;;;;;;59.88;35.97;;;11.90;99.90;;;;;;5098848;28;20258;-83
2023/02/18 07:47:39;;;;;;;59.88;33.45;;;11.90;99.90;;;;;;5117338;28;20640;-83
2023/02/18 07:50:05;;;;;;;63.03;34.57;;;11.90;99.90;;;;;;5098559;28;20297;-83
2023/02/18 07:52:31;;;;;;;57.47;34.65;;;11.90;99.90;;;;;;5117005;28;20215;-84
2023/02/18 07:54:57;;;;;;;60.30;35.50;;;11.90;99.90;;;;;;5098566;28;20175;-83
2023/02/18 07:57:22;;;;;;;65.93;34.50;;;11.90;99.90;;;;;;5116959;28;20685;-83
2023/02/18 07:59:48;;;;;;;54.23;35.60;;;12.00;99.90;;;;;;5098494;28;20576;-81
2023/02/18 08:02:18;;;;;;;59.30;35.33;;;12.00;99.90;;;;;;5098374;28;20210;-83
2023/02/18 08:04:43;;;;;;;59.90;35.67;;;12.00;99.90;;;;;;5116648;28;20167;-83
2023/02/18 08:07:14;;;;;;;57.80;34.23;;;12.00;99.90;;;;;;5098433;28;20212;-82
2023/02/18 08:09:40;;;;;;;56.35;35.47;;;12.00;99.90;;;;;;5098299;28;20168;-83
2023/02/18 08:12:06;;;;;;;56.67;35.97;;;12.00;99.90;;;;;;5116598;28;20223;-83
2023/02/18 08:14:32;;;;;;;65.50;38.10;;;12.00;99.90;;;;;;5116397;28;20247;-83
2023/02/18 08:16:57;;;;;;;58.30;34.40;;;12.10;99.90;;;;;;5098382;28;20446;-83
2023/02/18 08:19:23;;;;;;;60.37;35.03;;;12.10;99.90;;;;;;5098165;28;20176;-84
2023/02/18 08:21:49;;;;;;;64.00;38.47;;;12.10;99.90;;;;;;5116409;28;20172;-83
2023/02/18 08:24:15;;;;;;;59.13;35.57;;;12.10;99.90;;;;;;5098161;28;20194;-82
2023/02/18 08:26:40;;;;;;;64.27;36.60;;;12.10;99.90;;;;;;5116312;28;20505;-83
2023/02/18 08:29:06;;;;;;;61.50;34.90;;;12.20;99.90;;;;;;5116219;28;20681;-84
2023/02/18 08:31:33;;;;;;;59.70;34.63;;;12.20;99.90;;;;;;5116183;28;20216;-83
2023/02/18 08:33:59;;;;;;;58.88;35.28;;;12.30;99.90;;;;;;5097754;28;20424;-83
2023/02/18 08:36:25;;;;;;;58.07;34.13;;;12.30;99.90;;;;;;5116124;28;20180;-84
2023/02/18 08:38:52;;;;;;;57.25;35.65;;;12.30;99.90;;;;;;5097697;28;20463;-83
2023/02/18 08:41:18;;;;;;;54.88;34.75;;;12.30;99.90;;;;;;5115928;28;20184;-84
2023/02/18 08:43:44;;;;;;;61.93;36.27;;;12.30;99.90;;;;;;5115772;28;20245;-83
2023/02/18 08:46:11;;;;;;;52.85;34.45;;;12.40;99.90;;;;;;5115474;28;20826;-83
2023/02/18 08:48:37;;;;;;;57.47;37.95;;;12.40;99.90;;;;;;5115771;28;20552;-83
2023/02/18 08:51:17;;;;;;;62.23;37.33;;;12.40;99.90;;;;;;5097396;28;20226;-84
2023/02/18 08:53:43;;;;;;;61.10;34.23;;;12.40;99.90;;;;;;5097391;28;20207;-84
2023/02/18 08:56:09;;;;;;;59.47;34.60;;;12.50;99.90;;;;;;5097381;28;20412;-84
2023/02/18 08:58:36;;;;;;;61.23;35.97;;;12.50;99.90;;;;;;5115618;28;20424;-84
2023/02/18 09:01:07;;;;;;;60.20;36.60;;;12.50;99.90;;;;;;5097239;28;20503;-83
2023/02/18 09:03:33;;;;;;;64.77;37.93;;;12.60;99.90;;;;;;5097246;28;20436;-82
2023/02/18 09:06:00;;;;;;;60.30;40.03;;;12.50;99.90;;;;;;5115358;28;20432;-84
2023/02/18 09:08:27;;;;;;;54.50;34.00;;;12.60;99.90;;;;;;5115339;28;20443;-83
2023/02/18 09:11:00;;;;;;;57.83;34.43;;;12.60;99.90;;;;;;5115261;28;20541;-83
2023/02/18 09:13:27;;;;;;;61.13;34.93;;;12.60;99.90;;;;;;5096143;28;20463;-83
2023/02/18 09:16:00;;;;;;;52.37;30.93;;;12.60;99.90;;;;;;5114354;28;20483;-83
2023/02/18 09:18:27;;;;;;;48.07;31.53;;;12.60;99.90;;;;;;5097182;28;20459;-84
2023/02/18 09:20:56;;;;;;;55.87;35.50;;;12.60;99.90;;;;;;5113972;28;20453;-83
2023/02/18 09:23:23;;;;;;;57.47;34.50;;;12.60;99.90;;;;;;5114927;28;20192;-82
2023/02/18 09:25:49;;;;;;;56.20;33.90;;;12.60;99.90;;;;;;5114942;28;20412;-83
2023/02/18 09:28:15;;;;;;;63.50;37.90;;;12.60;99.90;;;;;;5115402;28;20436;-84
2023/02/18 09:30:40;;;;;;;69.00;41.93;;;12.70;99.90;;;;;;5096770;28;20175;-83
2023/02/18 09:33:06;;;;;;;56.23;35.27;;;12.70;99.90;;;;;;5096692;28;20219;-84
2023/02/18 09:35:32;;;;;;;79.00;45.90;;;12.70;99.90;;;;;;5114798;28;20210;-84
2023/02/18 09:37:57;;;;;;;56.90;35.77;;;12.70;99.90;;;;;;5096511;28;20439;-83
2023/02/18 09:40:30;;;;;;;60.60;37.93;;;12.80;99.90;;;;;;5096545;28;20224;-82
2023/02/18 09:42:57;;;;;;;56.37;34.13;;;12.70;99.90;;;;;;5114751;28;20243;-84
2023/02/18 09:45:24;;;;;;;59.30;37.90;;;12.80;99.90;;;;;;5114825;28;20431;-82
2023/02/18 09:47:50;;;;;;;61.93;35.27;;;12.90;99.90;;;;;;5096471;28;20442;-84
2023/02/18 09:50:31;;;;;;;58.40;34.40;;;13.00;99.90;;;;;;5114780;28;20404;-83
2023/02/18 09:53:02;;;;;;;51.83;31.60;;;13.10;99.90;;;;;;5096458;28;20891;-82
2023/02/18 09:55:37;;;;;;;49.80;32.23;;;13.10;99.90;;;;;;5096254;28;20893;-84
2023/02/18 09:58:13;;;;;;;54.90;32.27;;;13.20;99.90;;;;;;5095727;28;20534;-84
2023/02/18 10:00:52;;;;;;;55.87;32.50;;;13.30;99.90;;;;;;5114521;28;20396;-83
2023/02/18 10:03:21;;;;;;;49.97;31.77;;;13.40;99.90;;;;;;5096470;28;20439;-83
2023/02/18 10:06:04;;;;;;;50.67;30.17;;;13.40;99.90;;;;;;5114405;28;20924;-83
2023/02/18 10:08:33;;;;;;;51.10;31.70;;;13.50;99.90;;;;;;5109737;28;20976;-83
2023/02/18 10:10:58;;;;;;;51.80;34.00;;;13.60;99.90;;;;;;5096033;28;20420;-84
2023/02/18 10:13:29;;;;;;;44.93;30.30;;;13.60;99.90;;;;;;5096059;28;20474;-84
2023/02/18 10:15:55;;;;;;;50.90;30.00;;;13.70;99.90;;;;;;5114301;28;20176;-84
2023/02/18 10:18:29;;;;;;;46.40;30.80;;;13.70;99.90;;;;;;5113386;28;20432;-82
2023/02/18 10:21:06;;;;;;;51.00;33.83;;;13.80;99.90;;;;;;5096020;28;20183;-83
2023/02/18 10:23:35;;;;;;;47.67;28.83;;;13.90;99.90;;;;;;5095847;28;20508;-84
2023/02/18 10:26:06;;;;;;;50.90;31.10;;;13.90;99.90;;;;;;5095129;28;20416;-84
2023/02/18 10:28:34;;;;;;;45.10;28.80;;;14.00;99.90;;;;;;5112142;28;20532;-83
2023/02/18 10:31:07;;;;;;;47.67;28.10;;;14.10;99.90;;;;;;5111912;28;20432;-83
2023/02/18 10:33:35;;;;;;;46.80;29.50;;;14.30;99.90;;;;;;5093891;28;20484;-84
2023/02/18 10:36:27;;;;;;;44.13;26.67;;;14.50;99.90;;;;;;5093586;28;20436;-84
2023/02/18 10:39:15;;;;;;;50.80;27.77;;;14.60;99.90;;;;;;5093598;28;20444;-84
2023/02/18 10:42:03;;;;;;;44.43;26.23;;;14.70;99.90;;;;;;5112894;28;20423;-83
2023/02/18 10:44:51;;;;;;;45.40;25.70;;;14.80;99.90;;;;;;5101339;28;20420;-84
2023/02/18 10:47:26;;;;;;;42.83;27.93;;;14.90;99.90;;;;;;5114165;28;20444;-84
2023/02/18 10:50:12;;;;;;;39.67;26.60;;;15.00;99.90;;;;;;5114045;28;20407;-84
2023/02/18 10:52:44;;;;;;;41.57;25.97;;;15.10;99.90;;;;;;5095648;28;20475;-83
2023/02/18 10:55:14;;;;;;;44.63;26.67;;;15.20;99.90;;;;;;5113931;28;20416;-82
2023/02/18 10:57:49;;;;;;;37.90;25.83;;;15.20;99.90;;;;;;5095412;28;20447;-83
2023/02/18 11:00:22;;;;;;;39.63;25.60;;;15.40;99.90;;;;;;5113875;28;20468;-84
2023/02/18 11:03:12;;;;;;;37.60;24.60;;;15.50;99.90;;;;;;5095373;28;20527;-84
2023/02/18 11:05:38;;;;;;;36.17;24.40;;;15.70;99.90;;;;;;5113736;28;20412;-84
2023/02/18 11:08:09;;;;;;;35.17;24.00;;;15.80;99.90;;;;;;5095647;28;20440;-84
2023/02/18 11:10:39;;;;;;;37.13;24.80;;;16.00;99.90;;;;;;5116488;28;20416;-83
2023/02/18 11:13:07;;;;;;;38.03;24.73;;;16.10;99.90;;;;;;5117872;28;20471;-82
2023/02/18 11:15:34;;;;;;;35.20;23.70;;;16.20;99.90;;;;;;5117691;28;20432;-84
2023/02/18 11:18:36;;;;;;;34.63;24.03;;;16.20;99.90;;;;;;5117971;28;20526;-84
2023/02/18 11:21:38;;;;;;;34.60;22.30;;;16.40;99.90;;;;;;5074597;28;20419;-84
2023/02/18 11:24:15;;;;;;;34.10;23.00;;;16.50;99.90;;;;;;5098817;28;20435;-84
2023/02/18 11:26:43;;;;;;;31.20;23.03;;;16.50;99.90;;;;;;5117565;28;20871;-83
2023/02/18 11:29:20;;;;;;;31.47;24.10;;;16.40;99.90;;;;;;5099149;28;20512;-84
2023/02/18 11:31:48;;;;;;;35.50;25.27;;;16.30;99.90;;;;;;5117273;28;20538;-84
2023/02/18 11:34:23;;;;;;;36.57;25.30;;;16.30;99.90;;;;;;5099037;28;20472;-84
2023/02/18 11:36:49;;;;;;;44.80;26.10;;;16.10;99.90;;;;;;5117682;28;20900;-84
2023/02/18 11:39:21;;;;;;;39.30;26.03;;;16.00;99.90;;;;;;5117234;28;20416;-85
2023/02/18 11:41:54;;;;;;;36.40;25.20;;;16.00;99.90;;;;;;5117210;28;20412;-85
2023/02/18 11:44:30;;;;;;;38.00;27.10;;;15.80;99.90;;;;;;5117176;28;20412;-85
2023/02/18 11:47:04;;;;;;;45.03;27.17;;;15.70;99.90;;;;;;5117248;28;20612;-84
2023/02/18 11:49:32;;;;;;;43.80;28.83;;;15.60;99.90;;;;;;5098693;28;20929;-83
2023/02/18 11:52:17;;;;;;;42.33;27.13;;;15.60;99.90;;;;;;5098665;28;20528;-84
2023/02/18 11:55:12;;;;;;;44.83;29.33;;;15.60;99.90;;;;;;5098600;28;20451;-83
2023/02/18 11:57:43;;;;;;;40.70;27.73;;;15.60;99.90;;;;;;5098457;28;20439;-85
2023/02/18 12:00:43;;;;;;;44.67;27.47;;;15.50;99.90;;;;;;5116831;28;20488;-84
2023/02/18 12:03:29;;;;;;;44.10;28.07;;;15.50;99.90;;;;;;5098609;28;20467;-84
2023/02/18 12:05:58;;;;;;;48.23;30.27;;;15.30;99.90;;;;;;5116841;28;20393;-84
2023/02/18 12:08:30;;;;;;;44.87;30.10;;;15.20;99.90;;;;;;5116673;28;20512;-84
2023/02/18 12:11:18;;;;;;;46.93;30.63;;;15.10;99.90;;;;;;5116772;28;20423;-84
2023/02/18 12:13:54;;;;;;;44.57;28.30;;;15.10;99.90;;;;;;5116267;28;20806;-85
2023/02/18 12:16:38;;;;;;;43.83;27.37;;;15.00;99.90;;;;;;5116478;28;20449;-84
2023/02/18 12:19:18;;;;;;;46.77;29.00;;;15.00;99.90;;;;;;5116456;28;20787;-84
2023/02/18 12:21:56;;;;;;;43.73;28.40;;;15.00;99.90;;;;;;5097193;28;20466;-84
2023/02/18 12:24:37;;;;;;;52.53;34.23;;;15.00;99.90;;;;;;5098067;28;20424;-84
2023/02/18 12:27:49;;;;;;;51.30;35.30;;;15.00;99.90;;;;;;5116366;28;20467;-83
2023/02/18 12:30:18;;;;;;;82.90;45.90;;;15.10;99.90;;;;;;5084729;28;20480;-82
2023/02/18 12:33:04;;;;;;;54.47;33.57;;;15.00;99.90;;;;;;5115938;28;20472;-84
2023/02/18 12:35:56;;;;;;;88.90;50.60;;;15.00;99.90;;;;;;5116143;28;20397;-82
2023/02/18 12:38:44;;;;;;;54.60;35.03;;;15.00;99.90;;;;;;5097647;28;20578;-84
2023/02/18 12:41:22;;;;;;;48.60;31.60;;;15.00;99.90;;;;;;5116027;28;20407;-84
2023/02/18 12:44:21;;;;;;;61.93;38.43;;;15.00;99.90;;;;;;5116031;28;20474;-86